createdAt,value
2022-12-18T00:00:09.550Z,-0.56
2022-12-18T00:03:03.638Z,-0.52
2022-12-18T00:05:32.639Z,-0.43
2022-12-18T00:08:00.756Z,-0.34
2022-12-18T00:10:30.096Z,-0.25
2022-12-18T00:12:58.139Z,-0.14
2022-12-18T00:15:26.172Z,-0.13
2022-12-18T00:17:54.376Z,-0.18
2022-12-18T00:20:26.764Z,-0.22
2022-12-18T00:22:54.974Z,-0.21
2022-12-18T00:25:23.706Z,-0.22
2022-12-18T00:27:52.495Z,-0.16
2022-12-18T00:30:21.229Z,-0.09
2022-12-18T00:32:49.359Z,-0.00
2022-12-18T00:35:17.728Z,-0.06
2022-12-18T00:37:46.081Z,-0.11
2022-12-18T00:40:14.483Z,-0.13
2022-12-18T00:42:57.625Z,-0.06
2022-12-18T00:45:26.811Z,-0.06
2022-12-18T00:47:56.015Z,-0.07
2022-12-18T00:50:26.439Z,-0.01
2022-12-18T00:52:54.861Z,0.12
2022-12-18T00:55:23.300Z,0.20
2022-12-18T00:57:53.497Z,0.30
2022-12-18T01:00:22.118Z,0.40
2022-12-18T01:02:50.780Z,0.48
2022-12-18T01:05:19.378Z,0.54
2022-12-18T01:07:47.548Z,0.60
2022-12-18T01:10:15.807Z,0.62
2022-12-18T01:12:44.349Z,0.65
2022-12-18T01:15:14.938Z,0.68
2022-12-18T01:17:44.167Z,0.68
2022-12-18T01:20:14.375Z,0.65
2022-12-18T01:22:42.588Z,0.54
2022-12-18T01:25:10.991Z,0.52
2022-12-18T01:27:39.015Z,0.54
2022-12-18T01:30:07.982Z,0.53
2022-12-18T01:32:36.130Z,0.53
2022-12-18T01:35:04.973Z,0.56
2022-12-18T01:37:33.025Z,0.62
2022-12-18T01:40:01.511Z,0.67
2022-12-18T01:42:30.099Z,0.70
2022-12-18T01:44:58.045Z,0.75
2022-12-18T01:47:34.946Z,0.79
2022-12-18T01:50:07.697Z,0.69
2022-12-18T01:52:37.000Z,0.69
2022-12-18T01:55:08.480Z,0.73
2022-12-18T01:57:37.265Z,0.77
2022-12-18T02:00:09.662Z,0.81
2022-12-18T02:02:44.554Z,0.86
2022-12-18T02:05:19.215Z,0.84
2022-12-18T02:08:17.214Z,0.79
2022-12-18T02:10:51.389Z,0.69
2022-12-18T02:13:44.314Z,0.62
2022-12-18T02:16:40.388Z,0.45
2022-12-18T02:19:22.158Z,0.42
2022-12-18T02:22:12.658Z,0.38
2022-12-18T02:25:01.314Z,0.28
2022-12-18T02:27:33.561Z,0.27
2022-12-18T02:30:03.759Z,0.20
2022-12-18T02:32:35.914Z,0.09
2022-12-18T02:35:07.577Z,0.03
2022-12-18T02:37:39.917Z,0.02
2022-12-18T02:40:09.802Z,0.03
2022-12-18T02:42:38.325Z,0.06
2022-12-18T02:45:08.433Z,0.08
2022-12-18T02:47:43.377Z,0.11
2022-12-18T02:50:16.187Z,0.09
2022-12-18T02:52:56.902Z,0.07
2022-12-18T02:55:51.012Z,0.10
2022-12-18T02:58:27.674Z,-0.02
2022-12-18T03:01:00.756Z,0.02
2022-12-18T03:03:41.950Z,0.02
2022-12-18T03:06:19.497Z,-0.04
2022-12-18T03:08:55.261Z,-0.22
2022-12-18T03:11:46.470Z,-0.22
2022-12-18T03:14:18.586Z,-0.31
2022-12-18T03:16:51.161Z,-0.27
2022-12-18T03:19:23.327Z,-0.31
2022-12-18T03:21:58.360Z,-0.34
2022-12-18T03:24:31.144Z,-0.41
2022-12-18T03:27:03.667Z,-0.45
2022-12-18T03:29:39.583Z,-0.43
2022-12-18T03:32:23.058Z,-0.50
2022-12-18T03:34:54.982Z,-0.47
2022-12-18T03:37:24.161Z,-0.48
2022-12-18T03:39:53.285Z,-0.45
2022-12-18T03:42:37.925Z,-0.47
2022-12-18T03:45:20.147Z,-0.58
2022-12-18T03:48:30.665Z,-0.52
2022-12-18T03:51:18.806Z,-0.52
2022-12-18T03:53:59.367Z,-0.50
2022-12-18T03:56:38.441Z,-0.40
2022-12-18T03:59:08.951Z,-0.33
2022-12-18T04:01:42.011Z,-0.29
2022-12-18T04:04:14.002Z,-0.23
2022-12-18T04:06:44.499Z,-0.21
2022-12-18T04:09:14.203Z,-0.28
2022-12-18T04:11:45.579Z,-0.40
2022-12-18T04:14:18.283Z,-0.47
2022-12-18T04:16:49.196Z,-0.50
2022-12-18T04:19:18.301Z,-0.55
2022-12-18T04:21:46.735Z,-0.56
2022-12-18T04:24:15.260Z,-0.63
2022-12-18T04:26:49.151Z,-0.58
2022-12-18T04:29:19.810Z,-0.60
2022-12-18T04:31:48.630Z,-0.58
2022-12-18T04:34:16.953Z,-0.59
2022-12-18T04:36:49.994Z,-0.52
2022-12-18T04:39:19.118Z,-0.48
2022-12-18T04:41:47.420Z,-0.42
2022-12-18T04:44:15.748Z,-0.36
2022-12-18T04:46:44.894Z,-0.34
2022-12-18T04:49:13.585Z,-0.26
2022-12-18T04:51:41.807Z,-0.28
2022-12-18T04:54:09.908Z,-0.33
2022-12-18T04:56:38.091Z,-0.34
2022-12-18T04:59:06.052Z,-0.38
2022-12-18T05:01:37.219Z,-0.38
2022-12-18T05:04:05.472Z,-0.47
2022-12-18T05:06:33.798Z,-0.47
2022-12-18T05:09:02.120Z,-0.52
2022-12-18T05:11:30.404Z,-0.57
2022-12-18T05:13:58.634Z,-0.57
2022-12-18T05:16:26.867Z,-0.54
2022-12-18T05:18:54.921Z,-0.51
2022-12-18T05:21:22.990Z,-0.48
2022-12-18T05:23:51.037Z,-0.48
2022-12-18T05:26:20.033Z,-0.43
2022-12-18T05:28:48.210Z,-0.46
2022-12-18T05:31:16.416Z,-0.58
2022-12-18T05:33:44.673Z,-0.54
2022-12-18T05:36:13.222Z,-0.63
2022-12-18T05:38:42.128Z,-0.63
2022-12-18T05:41:10.883Z,-0.61
2022-12-18T05:43:40.877Z,-0.68
2022-12-18T05:46:15.847Z,-0.70
2022-12-18T05:48:44.405Z,-0.70
2022-12-18T05:51:17.842Z,-0.69
2022-12-18T05:53:46.468Z,-0.62
2022-12-18T05:56:18.453Z,-0.63
2022-12-18T05:58:46.713Z,-0.69
2022-12-18T06:01:18.170Z,-0.68
2022-12-18T06:03:46.927Z,-0.72
2022-12-18T06:06:19.425Z,-0.73
2022-12-18T06:08:48.516Z,-0.69
2022-12-18T06:11:23.179Z,-0.67
2022-12-18T06:13:57.840Z,-0.67
2022-12-18T06:16:28.244Z,-0.63
2022-12-18T06:19:01.235Z,-0.81
2022-12-18T06:21:30.316Z,-0.83
2022-12-18T06:23:59.956Z,-0.80
2022-12-18T06:26:28.747Z,-0.78
2022-12-18T06:28:57.219Z,-0.77
2022-12-18T06:31:26.074Z,-0.75
2022-12-18T06:33:54.528Z,-0.69
2022-12-18T06:36:22.656Z,-0.69
2022-12-18T06:38:50.958Z,-0.66
2022-12-18T06:41:21.824Z,-0.52
2022-12-18T06:43:50.683Z,-0.41
2022-12-18T06:46:18.856Z,-0.33
2022-12-18T06:48:51.427Z,-0.40
2022-12-18T06:51:24.795Z,-0.42
2022-12-18T06:53:53.366Z,-0.41
2022-12-18T06:56:21.680Z,-0.52
2022-12-18T06:58:49.840Z,-0.61
2022-12-18T07:01:18.135Z,-0.64
2022-12-18T07:03:46.494Z,-0.61
2022-12-18T07:06:17.095Z,-0.72
2022-12-18T07:08:46.276Z,-0.76
2022-12-18T07:11:15.509Z,-0.82
2022-12-18T07:13:44.439Z,-0.82
2022-12-18T07:16:24.404Z,-0.76
2022-12-18T07:18:55.955Z,-0.62
2022-12-18T07:21:25.434Z,-0.56
2022-12-18T07:23:53.420Z,-0.45
2022-12-18T07:26:22.747Z,-0.49
2022-12-18T07:28:51.805Z,-0.54
2022-12-18T07:31:22.226Z,-0.45
2022-12-18T07:33:51.926Z,-0.48
2022-12-18T07:36:20.765Z,-0.51
2022-12-18T07:38:50.050Z,-0.53
2022-12-18T07:41:19.778Z,-0.50
2022-12-18T07:43:48.173Z,-0.47
2022-12-18T07:46:17.727Z,-0.37
2022-12-18T07:48:49.680Z,-0.26
2022-12-18T07:51:20.671Z,-0.22
2022-12-18T07:53:52.117Z,-0.08
2022-12-18T07:56:31.155Z,-0.08
2022-12-18T07:59:04.065Z,-0.10
2022-12-18T08:01:32.627Z,-0.03
2022-12-18T08:04:01.176Z,0.02
2022-12-18T08:06:29.184Z,-0.03
2022-12-18T08:08:57.979Z,0.08
2022-12-18T08:11:27.852Z,0.17
2022-12-18T08:13:56.228Z,0.26
2022-12-18T08:16:24.564Z,0.33
2022-12-18T08:18:54.595Z,0.20
2022-12-18T08:21:27.524Z,0.10
2022-12-18T08:23:58.077Z,0.03
2022-12-18T08:26:30.184Z,0.03
2022-12-18T08:29:00.623Z,-0.19
2022-12-18T08:31:30.711Z,-0.18
2022-12-18T08:33:59.040Z,-0.11
2022-12-18T08:36:27.781Z,-0.09
2022-12-18T08:38:56.416Z,-0.21
2022-12-18T08:41:24.731Z,-0.43
2022-12-18T08:44:11.539Z,-0.38
2022-12-18T08:46:41.708Z,-0.26
2022-12-18T08:49:11.023Z,-0.32
2022-12-18T08:51:39.518Z,-0.34
2022-12-18T08:54:08.096Z,-0.26
2022-12-18T08:56:36.269Z,-0.22
2022-12-18T08:59:05.496Z,-0.37
2022-12-18T09:01:33.913Z,-0.44
2022-12-18T09:04:03.543Z,-0.36
2022-12-18T09:06:32.876Z,-0.46
2022-12-18T09:09:01.330Z,-0.34
2022-12-18T09:11:30.590Z,-0.39
2022-12-18T09:14:01.038Z,-0.54
2022-12-18T09:16:32.714Z,-0.44
2022-12-18T09:19:01.043Z,-0.40
2022-12-18T09:21:32.879Z,-0.49
2022-12-18T09:24:08.740Z,-0.51
2022-12-18T09:26:38.159Z,-0.48
2022-12-18T09:29:08.464Z,-0.41
2022-12-18T09:31:37.856Z,-0.26
2022-12-18T09:34:06.735Z,-0.24
2022-12-18T09:36:35.338Z,-0.19
2022-12-18T09:39:08.189Z,-0.18
2022-12-18T09:41:56.031Z,-0.23
2022-12-18T09:44:49.725Z,-0.14
2022-12-18T09:47:24.810Z,-0.15
2022-12-18T09:50:08.790Z,-0.15
2022-12-18T09:52:46.104Z,-0.21
2022-12-18T09:55:32.194Z,-0.25
2022-12-18T09:58:10.757Z,-0.24
2022-12-18T10:00:39.232Z,-0.17
2022-12-18T10:03:13.602Z,-0.11
2022-12-18T10:06:16.481Z,-0.13
2022-12-18T10:08:50.927Z,-0.05
2022-12-18T10:11:41.287Z,-0.03
2022-12-18T10:14:27.376Z,-0.01
2022-12-18T10:17:18.470Z,-0.16
2022-12-18T10:19:54.126Z,-0.15
2022-12-18T10:22:25.265Z,-0.19
2022-12-18T10:25:08.355Z,-0.13
2022-12-18T10:27:36.596Z,0.03
2022-12-18T10:30:15.233Z,0.13
2022-12-18T10:32:44.701Z,0.27
2022-12-18T10:35:18.669Z,0.29
2022-12-18T10:38:22.889Z,0.31
2022-12-18T10:41:22.516Z,0.45
2022-12-18T10:44:28.681Z,0.37
2022-12-18T10:47:10.217Z,0.20
2022-12-18T10:49:49.308Z,0.17
2022-12-18T10:52:24.196Z,0.10
2022-12-18T10:55:04.451Z,0.09
2022-12-18T10:57:35.211Z,0.02
2022-12-18T11:00:27.151Z,0.07
2022-12-18T11:02:57.047Z,0.11
2022-12-18T11:05:30.216Z,0.18
2022-12-18T11:08:00.076Z,0.16
2022-12-18T11:10:34.733Z,0.15
2022-12-18T11:13:19.806Z,0.12
2022-12-18T11:15:48.336Z,0.02
2022-12-18T11:18:24.710Z,-0.00
2022-12-18T11:20:58.730Z,0.07
2022-12-18T11:23:28.118Z,0.20
2022-12-18T11:26:03.163Z,0.28
2022-12-18T11:29:08.565Z,0.27
2022-12-18T11:31:36.934Z,0.27
2022-12-18T11:34:30.973Z,0.24
2022-12-18T11:37:02.501Z,0.32
2022-12-18T11:40:18.770Z,0.44
2022-12-18T11:42:59.510Z,0.73
2022-12-18T11:45:34.380Z,0.82
2022-12-18T11:48:25.280Z,1.01
2022-12-18T11:50:57.258Z,1.20
2022-12-18T11:53:29.345Z,1.36
2022-12-18T11:56:06.444Z,1.46
2022-12-18T11:58:49.870Z,1.43
2022-12-18T12:01:43.594Z,1.45
2022-12-18T12:04:15.941Z,1.57
2022-12-18T12:07:06.352Z,1.59
2022-12-18T12:09:37.472Z,1.42
2022-12-18T12:12:11.904Z,1.37
2022-12-18T12:14:52.494Z,1.40
2022-12-18T12:17:49.888Z,1.42
2022-12-18T12:20:29.764Z,1.42
2022-12-18T12:23:07.369Z,1.22
2022-12-18T12:25:47.898Z,1.00
2022-12-18T12:28:33.673Z,0.99
2022-12-18T12:31:08.254Z,0.95
2022-12-18T12:33:48.494Z,0.93
2022-12-18T12:36:24.419Z,0.84
2022-12-18T12:39:02.093Z,0.77
2022-12-18T12:41:53.840Z,0.73
2022-12-18T12:44:32.547Z,0.70
2022-12-18T12:47:08.485Z,0.79
2022-12-18T12:49:40.922Z,0.87
2022-12-18T12:52:18.788Z,0.82
2022-12-18T12:54:48.836Z,0.80
2022-12-18T12:57:34.757Z,0.95
2022-12-18T13:00:20.847Z,1.01
2022-12-18T13:03:21.255Z,1.03
2022-12-18T13:05:57.725Z,1.02
2022-12-18T13:08:27.481Z,0.91
2022-12-18T13:11:19.650Z,0.88
2022-12-18T13:13:53.268Z,0.86
2022-12-18T13:16:24.003Z,0.83
2022-12-18T13:19:01.362Z,0.84
2022-12-18T13:21:32.594Z,0.76
2022-12-18T13:24:26.660Z,0.77
2022-12-18T13:26:55.568Z,0.77
2022-12-18T13:29:46.698Z,0.84
2022-12-18T13:32:22.026Z,0.90
2022-12-18T13:35:34.275Z,0.87
2022-12-18T13:38:02.715Z,0.64
2022-12-18T13:40:40.534Z,0.51
2022-12-18T13:43:44.620Z,0.38
2022-12-18T13:46:29.193Z,0.34
2022-12-18T13:49:18.194Z,0.23
2022-12-18T13:51:53.032Z,0.17
2022-12-18T13:54:25.504Z,0.14
2022-12-18T13:56:53.936Z,0.14
2022-12-18T13:59:24.549Z,0.08
2022-12-18T14:01:59.115Z,-0.01
2022-12-18T14:04:34.237Z,-0.02
2022-12-18T14:07:14.474Z,-0.02
2022-12-18T14:09:50.296Z,-0.06
2022-12-18T14:12:52.998Z,-0.05
2022-12-18T14:15:27.804Z,-0.10
2022-12-18T14:18:00.420Z,-0.21
2022-12-18T14:20:32.101Z,-0.24
2022-12-18T14:23:01.399Z,-0.30
2022-12-18T14:25:31.758Z,-0.33
2022-12-18T14:28:09.876Z,-0.36
2022-12-18T14:30:40.789Z,-0.42
2022-12-18T14:33:16.241Z,-0.45
2022-12-18T14:35:55.770Z,-0.50
2022-12-18T14:38:27.714Z,-0.50
2022-12-18T14:41:04.184Z,-0.53
2022-12-18T14:43:38.703Z,-0.62
2022-12-18T14:46:28.374Z,-0.65
2022-12-18T14:48:57.842Z,-0.64
2022-12-18T14:51:35.311Z,-0.65
2022-12-18T14:54:09.373Z,-0.67
2022-12-18T14:56:44.108Z,-0.74
2022-12-18T14:59:24.713Z,-0.73
2022-12-18T15:02:12.051Z,-0.74
2022-12-18T15:04:44.605Z,-0.80
2022-12-18T15:07:23.143Z,-0.85
2022-12-18T15:10:14.724Z,-0.90
2022-12-18T15:12:58.528Z,-0.98
2022-12-18T15:15:39.263Z,-1.03
2022-12-18T15:18:13.798Z,-1.04
2022-12-18T15:20:43.714Z,-1.08
2022-12-18T15:23:24.412Z,-1.10
2022-12-18T15:26:17.544Z,-1.12
2022-12-18T15:28:53.192Z,-1.07
2022-12-18T15:31:24.598Z,-1.04
2022-12-18T15:33:54.167Z,-1.07
2022-12-18T15:36:26.162Z,-1.08
2022-12-18T15:39:04.712Z,-1.09
2022-12-18T15:41:36.497Z,-1.10
2022-12-18T15:44:26.640Z,-1.16
2022-12-18T15:46:58.532Z,-1.19
2022-12-18T15:49:27.297Z,-1.23
2022-12-18T15:51:59.360Z,-1.19
2022-12-18T15:54:46.406Z,-1.22
2022-12-18T15:57:26.650Z,-1.23
2022-12-18T15:59:59.291Z,-1.29
2022-12-18T16:02:29.680Z,-1.32
2022-12-18T16:04:59.148Z,-1.34
2022-12-18T16:07:30.313Z,-1.40
2022-12-18T16:10:00.382Z,-1.44
2022-12-18T16:12:31.463Z,-1.49
2022-12-18T16:14:59.530Z,-1.54
2022-12-18T16:17:28.022Z,-1.60
2022-12-18T16:19:56.487Z,-1.66
2022-12-18T16:22:28.063Z,-1.73
2022-12-18T16:24:57.532Z,-1.79
2022-12-18T16:27:26.706Z,-1.85
2022-12-18T16:29:55.475Z,-1.89
2022-12-18T16:32:25.296Z,-1.89
2022-12-18T16:34:54.555Z,-1.88
2022-12-18T16:37:23.277Z,-1.87
2022-12-18T16:39:52.143Z,-1.88
2022-12-18T16:42:21.803Z,-1.89
2022-12-18T16:44:50.946Z,-1.90
2022-12-18T16:47:20.190Z,-1.90
2022-12-18T16:49:51.929Z,-1.88
2022-12-18T16:52:20.767Z,-1.86
2022-12-18T16:54:49.275Z,-1.88
2022-12-18T16:57:20.414Z,-1.89
2022-12-18T16:59:50.175Z,-1.91
2022-12-18T17:02:23.919Z,-1.96
2022-12-18T17:04:56.315Z,-2.00
2022-12-18T17:07:25.848Z,-2.05
2022-12-18T17:09:54.878Z,-2.09
2022-12-18T17:12:24.039Z,-2.11
2022-12-18T17:14:52.443Z,-2.13
2022-12-18T17:17:22.732Z,-2.14
2022-12-18T17:19:52.894Z,-2.15
2022-12-18T17:22:23.374Z,-2.15
2022-12-18T17:24:51.884Z,-2.17
2022-12-18T17:27:20.275Z,-2.20
2022-12-18T17:29:49.120Z,-2.24
2022-12-18T17:32:18.277Z,-2.30
2022-12-18T17:34:46.755Z,-2.35
2022-12-18T17:37:15.625Z,-2.38
2022-12-18T17:39:44.108Z,-2.40
2022-12-18T17:42:15.451Z,-2.45
2022-12-18T17:44:44.616Z,-2.51
2022-12-18T17:47:14.236Z,-2.55
2022-12-18T17:49:42.661Z,-2.59
2022-12-18T17:52:11.537Z,-2.63
2022-12-18T17:54:42.530Z,-2.62
2022-12-18T17:57:11.446Z,-2.61
2022-12-18T17:59:40.107Z,-2.60
2022-12-18T18:02:12.092Z,-2.58
2022-12-18T18:04:40.765Z,-2.57
2022-12-18T18:07:09.688Z,-2.55
2022-12-18T18:09:38.211Z,-2.54
2022-12-18T18:12:25.185Z,-2.54
2022-12-18T18:14:53.980Z,-2.55
2022-12-18T18:17:23.013Z,-2.58
2022-12-18T18:19:51.898Z,-2.62
2022-12-18T18:22:20.270Z,-2.67
2022-12-18T18:24:48.725Z,-2.72
2022-12-18T18:27:17.373Z,-2.76
2022-12-18T18:29:45.629Z,-2.79
2022-12-18T18:32:14.041Z,-2.83
2022-12-18T18:34:42.374Z,-2.85
2022-12-18T18:37:11.332Z,-2.85
2022-12-18T18:39:39.702Z,-2.82
2022-12-18T18:42:08.097Z,-2.79
2022-12-18T18:44:36.744Z,-2.76
2022-12-18T18:47:06.916Z,-2.73
2022-12-18T18:49:37.757Z,-2.72
2022-12-18T18:52:07.446Z,-2.73
2022-12-18T18:54:35.611Z,-2.75
2022-12-18T18:57:20.429Z,-2.77
2022-12-18T18:59:48.803Z,-2.78
2022-12-18T19:02:18.200Z,-2.85
2022-12-18T19:04:47.179Z,-2.94
2022-12-18T19:07:20.328Z,-3.03
2022-12-18T19:10:04.871Z,-3.13
2022-12-18T19:12:53.904Z,-3.19
2022-12-18T19:15:23.072Z,-3.22
2022-12-18T19:17:51.331Z,-3.24
2022-12-18T19:20:19.949Z,-3.27
2022-12-18T19:22:55.200Z,-3.30
2022-12-18T19:25:38.614Z,-3.35
2022-12-18T19:28:19.962Z,-3.40
2022-12-18T19:30:55.362Z,-3.44
2022-12-18T19:33:43.049Z,-3.49
2022-12-18T19:36:19.316Z,-3.53
2022-12-18T19:38:48.202Z,-3.56
2022-12-18T19:41:18.276Z,-3.60
2022-12-18T19:43:46.959Z,-3.64
2022-12-18T19:46:17.561Z,-3.67
2022-12-18T19:48:47.225Z,-3.69
2022-12-18T19:51:18.882Z,-3.72
2022-12-18T19:53:48.082Z,-3.78
2022-12-18T19:56:19.304Z,-3.80
2022-12-18T19:58:47.416Z,-3.81
2022-12-18T20:01:17.849Z,-3.84
2022-12-18T20:03:51.448Z,-3.89
2022-12-18T20:06:29.984Z,-3.94
2022-12-18T20:09:01.604Z,-3.99
2022-12-18T20:11:30.782Z,-4.03
2022-12-18T20:13:58.910Z,-4.06
2022-12-18T20:16:28.780Z,-4.10
2022-12-18T20:18:58.031Z,-4.14
2022-12-18T20:21:26.602Z,-4.15
2022-12-18T20:23:56.112Z,-4.16
2022-12-18T20:26:24.910Z,-4.18
2022-12-18T20:28:54.565Z,-4.19
2022-12-18T20:31:23.990Z,-4.20
2022-12-18T20:33:53.436Z,-4.17
2022-12-18T20:36:24.521Z,-4.08
2022-12-18T20:38:57.233Z,-3.99
2022-12-18T20:41:37.414Z,-3.92
2022-12-18T20:44:22.413Z,-3.87
2022-12-18T20:46:57.017Z,-3.85
2022-12-18T20:49:26.944Z,-3.85
2022-12-18T20:51:57.841Z,-3.84
2022-12-18T20:54:27.540Z,-3.86
2022-12-18T20:56:57.246Z,-3.88
2022-12-18T20:59:25.911Z,-3.90
2022-12-18T21:01:56.229Z,-3.89
2022-12-18T21:04:24.802Z,-3.85
2022-12-18T21:06:58.031Z,-3.83
2022-12-18T21:09:37.549Z,-3.85
2022-12-18T21:12:34.055Z,-3.86
2022-12-18T21:15:11.357Z,-3.92
2022-12-18T21:17:44.185Z,-3.99
2022-12-18T21:20:17.813Z,-4.04
2022-12-18T21:22:49.657Z,-4.11
2022-12-18T21:25:18.413Z,-4.19
2022-12-18T21:27:46.916Z,-4.23
2022-12-18T21:30:15.481Z,-4.24
2022-12-18T21:32:44.164Z,-4.27
2022-12-18T21:35:13.009Z,-4.31
2022-12-18T21:37:41.916Z,-4.36
2022-12-18T21:40:11.412Z,-4.41
2022-12-18T21:42:58.247Z,-4.45
2022-12-18T21:45:26.463Z,-4.49
2022-12-18T21:47:54.843Z,-4.52
2022-12-18T21:50:23.343Z,-4.51
2022-12-18T21:52:51.474Z,-4.50
2022-12-18T21:55:19.758Z,-4.49
2022-12-18T21:57:48.003Z,-4.48
2022-12-18T22:00:18.718Z,-4.45
2022-12-18T22:03:03.321Z,-4.42
2022-12-18T22:05:38.198Z,-4.39
2022-12-18T22:08:07.569Z,-4.36
2022-12-18T22:10:36.959Z,-4.33
2022-12-18T22:13:06.568Z,-4.31
2022-12-18T22:15:34.922Z,-4.28
2022-12-18T22:18:03.164Z,-4.28
2022-12-18T22:20:31.303Z,-4.32
2022-12-18T22:23:01.068Z,-4.39
2022-12-18T22:25:35.184Z,-4.43
2022-12-18T22:28:22.599Z,-4.47
2022-12-18T22:30:53.032Z,-4.53
2022-12-18T22:33:28.633Z,-4.59
2022-12-18T22:35:56.956Z,-4.63
2022-12-18T22:38:28.512Z,-4.65
2022-12-18T22:40:56.700Z,-4.69
2022-12-18T22:43:25.424Z,-4.69
2022-12-18T22:45:53.702Z,-4.68
2022-12-18T22:48:22.311Z,-4.68
2022-12-18T22:50:51.144Z,-4.67
2022-12-18T22:53:24.101Z,-4.65
2022-12-18T22:55:52.648Z,-4.63
2022-12-18T22:58:22.569Z,-4.61
2022-12-18T23:00:50.718Z,-4.58
2022-12-18T23:03:18.798Z,-4.58
2022-12-18T23:05:47.994Z,-4.59
2022-12-18T23:08:16.090Z,-4.61
2022-12-18T23:10:44.299Z,-4.63
2022-12-18T23:13:13.100Z,-4.67
2022-12-18T23:15:44.233Z,-4.71
2022-12-18T23:18:12.536Z,-4.76
2022-12-18T23:20:40.790Z,-4.81
2022-12-18T23:23:09.724Z,-4.86
2022-12-18T23:25:38.091Z,-4.91
2022-12-18T23:28:06.936Z,-4.95
2022-12-18T23:30:35.624Z,-4.96
2022-12-18T23:33:04.074Z,-4.96
2022-12-18T23:35:32.662Z,-4.96
2022-12-18T23:38:01.072Z,-4.96
2022-12-18T23:40:30.113Z,-4.95
2022-12-18T23:43:00.420Z,-4.94
2022-12-18T23:45:28.778Z,-4.93
2022-12-18T23:47:57.015Z,-4.92
2022-12-18T23:50:30.014Z,-4.90
2022-12-18T23:53:04.729Z,-4.89
2022-12-18T23:55:39.708Z,-4.89
2022-12-18T23:58:15.004Z,-4.91
